Time;durP1;ratioP1;P1;durP2;ratioP2;P2;SDS_P1;SDS_P2;PMS_P1;PMS_P2;Temp;Humidity;BMP_temperature;BMP_pressure;BME280_temperature;BME280_humidity;BME280_pressure;Samples;Min_cycle;Max_cycle;Signal;HPM_P1;HPM_P2
2023/10/25 00:03:31;;;;;;;25.88;11.18;;;;;;;15.86;87.21;99942.69;5188173;22;20087;-75
2023/10/25 00:05:57;;;;;;;23.02;11.02;;;;;;;15.73;87.68;99928.69;5070995;28;20024;-77
2023/10/25 00:08:22;;;;;;;22.02;10.68;;;;;;;15.23;89.42;99922.22;5050724;28;20037;-77
2023/10/25 00:10:47;;;;;;;27.92;11.93;;;;;;;15.22;89.25;99927.41;5050038;28;20025;-78
2023/10/25 00:13:13;;;;;;;20.65;11.45;;;;;;;15.22;89.39;99936.06;5032333;28;20033;-80
2023/10/25 00:15:40;;;;;;;25.38;12.45;;;;;;;15.18;89.99;99934.31;5050769;28;20078;-76
2023/10/25 00:18:05;;;;;;;22.05;12.43;;;;;;;14.97;90.52;99922.81;5032323;28;20451;-77
2023/10/25 00:20:32;;;;;;;24.58;11.63;;;;;;;14.91;90.20;99911.50;5050142;28;20029;-77
2023/10/25 00:22:58;;;;;;;25.85;11.75;;;;;;;14.87;90.98;99940.06;5049989;28;20032;-77
2023/10/25 00:25:23;;;;;;;29.33;11.15;;;;;;;14.47;91.04;99874.63;5050298;28;20013;-77
2023/10/25 00:27:48;;;;;;;24.50;12.05;;;;;;;14.82;89.79;99936.53;5049953;28;20025;-77
2023/10/25 00:30:14;;;;;;;17.48;10.93;;;;;;;14.43;89.94;99919.59;5049945;28;20487;-77
2023/10/25 00:32:39;;;;;;;23.00;12.05;;;;;;;14.53;90.33;99946.56;5049609;28;20394;-77
2023/10/25 00:35:05;;;;;;;26.40;10.82;;;;;;;14.31;90.82;99927.25;5049953;28;20501;-77
2023/10/25 00:37:31;;;;;;;29.50;11.05;;;;;;;14.42;89.74;99935.16;5050268;28;20028;-78
2023/10/25 00:39:57;;;;;;;27.73;10.65;;;;;;;14.43;89.06;99927.41;5049699;28;20024;-77
2023/10/25 00:42:22;;;;;;;27.52;11.45;;;;;;;14.32;88.44;99890.03;5049762;28;20107;-77
2023/10/25 00:44:48;;;;;;;33.50;11.50;;;;;;;14.43;88.66;99919.59;5032499;28;20112;-77
2023/10/25 00:47:13;;;;;;;28.77;11.88;;;;;;;14.43;88.89;99930.00;5044708;28;20033;-74
2023/10/25 00:49:39;;;;;;;23.60;10.50;;;;;;;14.22;89.20;99909.81;5040331;28;20095;-74
2023/10/25 00:52:05;;;;;;;27.83;11.13;;;;;;;14.36;90.04;99941.16;5050196;28;20108;-73
2023/10/25 00:54:30;;;;;;;27.77;10.80;;;;;;;13.71;90.25;99842.53;5050709;28;20521;-75
2023/10/25 00:56:56;;;;;;;23.25;11.35;;;;;;;13.83;91.14;99879.88;5048418;28;20108;-74
2023/10/25 00:59:22;;;;;;;23.08;11.02;;;;;;;14.20;91.75;99937.47;5049663;28;20036;-73
2023/10/25 01:01:49;;;;;;;25.17;11.73;;;;;;;13.70;91.62;99845.09;5050437;28;20049;-75
2023/10/25 01:04:15;;;;;;;26.85;12.50;;;;;;;13.80;91.35;99836.59;5036457;28;20052;-76
2023/10/25 01:06:41;;;;;;;24.83;12.68;;;;;;;14.39;91.48;99916.09;5053477;28;20029;-74
2023/10/25 01:09:07;;;;;;;34.35;13.77;;;;;;;13.93;91.76;99842.81;5053968;28;20063;-75
2023/10/25 01:11:32;;;;;;;27.20;14.93;;;;;;;14.33;92.01;99904.75;5053562;28;20017;-73
2023/10/25 01:13:58;;;;;;;33.10;14.52;;;;;;;14.59;92.21;99919.78;5053913;28;20547;-77
2023/10/25 01:16:23;;;;;;;26.90;15.55;;;;;;;14.80;92.37;99919.19;5053394;28;20029;-79
2023/10/25 01:18:49;;;;;;;31.35;13.98;;;;;;;14.55;93.12;99905.88;5035739;28;20037;-80
2023/10/25 01:21:15;;;;;;;32.45;14.65;;;;;;;14.67;93.06;99926.84;5053262;28;20037;-76
2023/10/25 01:23:41;;;;;;;27.80;14.77;;;;;;;14.23;92.88;99839.75;5036156;28;20025;-76
2023/10/25 01:26:06;;;;;;;27.27;13.88;;;;;;;14.67;92.62;99936.38;5052642;28;20048;-77
2023/10/25 01:28:32;;;;;;;26.67;14.85;;;;;;;14.52;92.21;99930.09;5052917;28;20047;-76
2023/10/25 01:30:57;;;;;;;26.52;14.15;;;;;;;14.48;90.71;99930.91;5034746;28;20025;-75
2023/10/25 01:33:23;;;;;;;36.25;14.52;;;;;;;14.30;90.99;99912.50;5052935;28;20043;-77
2023/10/25 01:35:49;;;;;;;26.83;14.73;;;;;;;14.21;90.43;99919.31;5035273;28;20025;-74
2023/10/25 01:38:14;;;;;;;32.35;14.48;;;;;;;14.31;90.32;99935.91;5053537;28;20036;-75
2023/10/25 01:40:40;;;;;;;29.75;13.70;;;;;;;14.19;89.97;99899.38;5035720;28;20445;-74
2023/10/25 01:43:05;;;;;;;28.85;14.25;;;;;;;14.43;89.17;99922.22;5045485;28;20024;-77
2023/10/25 01:45:31;;;;;;;28.77;14.43;;;;;;;14.42;88.73;99923.06;5056100;28;20033;-79
2023/10/25 01:47:56;;;;;;;26.73;14.25;;;;;;;14.29;89.84;99921.16;5034944;28;20044;-74
2023/10/25 01:50:22;;;;;;;33.85;14.30;;;;;;;13.52;90.51;99822.34;5052175;28;20027;-77
2023/10/25 01:52:47;;;;;;;39.20;15.20;;;;;;;14.15;90.98;99933.94;5033553;28;20398;-76
2023/10/25 01:55:13;;;;;;;36.92;16.02;;;;;;;14.13;90.86;99936.53;5031788;28;20075;-76
2023/10/25 01:57:38;;;;;;;28.25;14.95;;;;;;;13.75;91.26;99866.78;5051771;28;20487;-76
2023/10/25 02:00:06;;;;;;;27.48;14.25;;;;;;;13.94;90.81;99903.38;5051635;28;20482;-76
2023/10/25 02:02:33;;;;;;;35.78;15.68;;;;;;;14.24;90.53;99921.06;5052630;28;20122;-78
2023/10/25 02:04:58;;;;;;;25.65;14.38;;;;;;;14.39;89.27;99916.09;5052176;28;20020;-79
2023/10/25 02:07:23;;;;;;;31.38;14.77;;;;;;;14.43;88.68;99913.53;5028715;28;20045;-78
2023/10/25 02:09:49;;;;;;;30.45;13.98;;;;;;;14.55;88.89;99913.69;5011874;28;20617;-80
2023/10/25 02:12:14;;;;;;;36.95;15.38;;;;;;;14.62;88.83;99905.09;5029368;28;20089;-75
2023/10/25 02:14:40;;;;;;;30.05;14.95;;;;;;;14.64;88.03;99885.22;5028837;28;20030;-74
2023/10/25 02:17:05;;;;;;;34.63;14.75;;;;;;;14.78;86.17;99889.69;5020341;28;20050;-74
2023/10/25 02:19:31;;;;;;;34.88;15.70;;;;;;;14.85;85.38;99881.13;5022422;28;20044;-75
2023/10/25 02:21:58;;;;;;;31.48;14.73;;;;;;;14.99;84.84;99895.13;5009574;28;20048;-74
2023/10/25 02:24:24;;;;;;;26.98;14.80;;;;;;;15.00;84.75;99880.41;4986165;28;20680;-75
2023/10/25 02:26:51;;;;;;;26.75;14.95;;;;;;;15.06;85.31;99893.44;4989447;28;20046;-75
2023/10/25 02:29:16;;;;;;;28.58;15.43;;;;;;;14.95;85.35;99863.88;4989783;28;20038;-76
2023/10/25 02:31:41;;;;;;;31.25;15.48;;;;;;;15.03;85.26;99883.91;4989988;28;20554;-75
2023/10/25 02:34:07;;;;;;;30.40;14.48;;;;;;;14.47;85.18;99790.66;4989383;28;20045;-76
2023/10/25 02:36:32;;;;;;;34.65;16.48;;;;;;;14.92;83.40;99867.34;4989727;28;20030;-73
2023/10/25 02:38:58;;;;;;;32.25;16.05;;;;;;;14.93;82.45;99879.47;4989168;28;20125;-79
2023/10/25 02:41:23;;;;;;;29.58;15.73;;;;;;;14.88;83.31;99871.63;4989399;28;20079;-78
2023/10/25 02:43:51;;;;;;;32.25;15.75;;;;;;;15.00;83.45;99880.41;4989267;28;20183;-78
2023/10/25 02:46:17;;;;;;;33.90;16.25;;;;;;;14.86;83.98;99862.06;4989392;28;20110;-79
2023/10/25 02:48:42;;;;;;;26.70;15.20;;;;;;;14.83;84.23;99888.91;4964702;28;20153;-77
2023/10/25 02:51:08;;;;;;;33.42;16.40;;;;;;;14.77;84.81;99895.78;4989418;28;20030;-79
2023/10/25 02:53:34;;;;;;;28.80;16.13;;;;;;;14.41;87.44;99892.75;4988879;28;20033;-77
2023/10/25 02:56:00;;;;;;;30.83;15.55;;;;;;;13.81;91.69;99902.34;5035139;28;20056;-79
2023/10/25 02:58:25;;;;;;;31.73;15.30;;;;;;;13.64;93.24;99902.94;5041211;28;20044;-78
2023/10/25 03:00:51;;;;;;;29.20;16.02;;;;;;;13.54;94.10;99908.84;5032993;28;20495;-77
2023/10/25 03:03:16;;;;;;;35.45;15.40;;;;;;;13.65;94.21;99903.84;5032597;28;20049;-80
2023/10/25 03:05:42;;;;;;;31.02;15.48;;;;;;;13.61;93.55;99876.97;5050547;28;20503;-79
2023/10/25 03:08:07;;;;;;;27.00;16.23;;;;;;;13.50;93.21;99884.56;5050585;28;20403;-79
2023/10/25 03:10:33;;;;;;;30.77;16.88;;;;;;;13.55;94.11;99910.59;5050300;28;20029;-78
2023/10/25 03:12:59;;;;;;;32.42;16.23;;;;;;;13.46;94.60;99918.22;5040831;28;20025;-78
2023/10/25 03:15:25;;;;;;;33.25;17.17;;;;;;;13.09;94.49;99826.00;5040768;28;20027;-78
2023/10/25 03:17:50;;;;;;;30.77;18.45;;;;;;;13.68;94.50;99907.34;5047257;28;20025;-78
2023/10/25 03:20:16;;;;;;;33.80;18.10;;;;;;;13.90;93.84;99926.66;5037800;28;20075;-78
2023/10/25 03:22:41;;;;;;;28.50;17.08;;;;;;;13.99;93.42;99909.50;5051073;28;20083;-77
2023/10/25 03:25:07;;;;;;;30.83;18.10;;;;;;;14.01;92.73;99911.25;5050309;28;20033;-78
2023/10/25 03:27:33;;;;;;;31.67;17.52;;;;;;;13.61;92.82;99845.84;5050739;28;20028;-78
2023/10/25 03:29:58;;;;;;;29.98;17.38;;;;;;;13.70;93.50;99916.00;5050848;28;20040;-81
2023/10/25 03:32:24;;;;;;;32.88;17.83;;;;;;;13.49;94.62;99900.13;5051078;28;20083;-80
2023/10/25 03:34:52;;;;;;;39.45;19.15;;;;;;;13.47;95.33;99907.00;5032780;28;20025;-78
2023/10/25 03:37:19;;;;;;;34.78;19.02;;;;;;;13.17;96.34;99893.53;5032909;28;20025;-77
2023/10/25 03:39:44;;;;;;;42.25;21.88;;;;;;;13.36;97.61;99946.56;5032681;28;20124;-77
2023/10/25 03:42:10;;;;;;;43.53;23.83;;;;;;;13.05;100.00;99965.88;5050595;28;20105;-77
2023/10/25 03:44:35;;;;;;;47.78;26.35;;;;;;;12.84;100.00;99909.34;5051064;28;20082;-78
2023/10/25 03:47:00;;;;;;;45.10;27.17;;;;;;;12.94;100.00;99926.81;5008098;28;20037;-78
2023/10/25 03:49:26;;;;;;;44.08;27.98;;;;;;;13.03;100.00;99911.41;5008147;28;20601;-78
2023/10/25 03:51:52;;;;;;;51.33;27.48;;;;;;;12.89;100.00;99863.66;5008032;28;20038;-80
2023/10/25 03:54:17;;;;;;;46.75;27.52;;;;;;;13.36;100.00;99920.63;5005702;28;20589;-78
2023/10/25 03:56:43;;;;;;;49.67;29.48;;;;;;;13.56;100.00;99917.53;5008268;28;20046;-79
2023/10/25 03:59:09;;;;;;;50.08;29.25;;;;;;;13.63;100.00;99903.78;5008558;28;20037;-79
2023/10/25 04:01:34;;;;;;;56.75;31.95;;;;;;;13.75;100.00;99903.09;4991716;28;20076;-79
2023/10/25 04:04:00;;;;;;;50.08;28.10;;;;;;;13.74;99.22;99886.69;5008160;28;20448;-79
2023/10/25 04:06:25;;;;;;;64.47;39.15;;;;;;;13.90;100.00;99897.28;4991667;28;20095;-78
2023/10/25 04:08:51;;;;;;;73.18;45.22;;;;;;;13.92;100.00;99890.38;5012586;28;20117;-79
2023/10/25 04:11:16;;;;;;;84.10;46.42;;;;;;;13.94;100.00;99877.44;5005711;28;20041;-78
2023/10/25 04:13:42;;;;;;;85.65;46.40;;;;;;;14.03;100.00;99869.75;5012134;28;20049;-78
2023/10/25 04:16:09;;;;;;;68.28;43.08;;;;;;;14.16;100.00;99852.63;4986432;28;20873;-78
2023/10/25 04:18:36;;;;;;;76.53;43.40;;;;;;;14.25;100.00;99878.69;5016487;28;20033;-78
2023/10/25 04:21:08;;;;;;;70.72;43.85;;;;;;;14.23;100.00;99883.88;5049126;28;20110;-79
2023/10/25 04:23:34;;;;;;;80.80;43.45;;;;;;;14.15;100.00;99848.28;5032217;28;20029;-78
2023/10/25 04:26:10;;;;;;;75.55;43.95;;;;;;;14.34;100.00;99876.22;5032169;28;20029;-75
2023/10/25 04:28:38;;;;;;;81.72;45.17;;;;;;;13.85;100.00;99772.66;5049836;28;20025;-76
2023/10/25 04:31:04;;;;;;;78.53;46.75;;;;;;;14.34;100.00;99868.44;5032112;28;20033;-78
2023/10/25 04:33:30;;;;;;;83.38;48.80;;;;;;;14.36;100.00;99869.31;5031711;28;20029;-77
2023/10/25 04:35:56;;;;;;;81.50;48.08;;;;;;;14.34;100.00;99863.25;5050215;28;20025;-77
2023/10/25 04:38:25;;;;;;;86.32;49.65;;;;;;;14.30;100.00;99873.56;5049673;28;20039;-77
2023/10/25 04:40:54;;;;;;;88.53;51.35;;;;;;;14.20;100.00;99868.25;5032008;28;20068;-79
2023/10/25 04:43:19;;;;;;;98.25;55.10;;;;;;;14.29;100.00;99864.88;5050041;28;20036;-78
2023/10/25 04:45:46;;;;;;;94.10;51.25;;;;;;;14.39;100.00;99884.03;5049728;28;20025;-77
2023/10/25 04:48:11;;;;;;;99.85;55.08;;;;;;;14.48;100.00;99883.28;5049575;28;20169;-79
2023/10/25 04:50:38;;;;;;;102.03;54.83;;;;;;;14.45;100.00;99870.28;5049740;28;20647;-78
2023/10/25 04:53:04;;;;;;;115.03;56.38;;;;;;;14.63;100.00;99870.47;5031845;28;20411;-81
2023/10/25 04:55:34;;;;;;;104.85;56.42;;;;;;;14.57;100.00;99831.44;5048252;28;20029;-75
2023/10/25 04:58:00;;;;;;;117.53;58.30;;;;;;;14.70;100.00;99848.94;5020631;28;20487;-76
2023/10/25 05:00:27;;;;;;;102.57;55.45;;;;;;;14.65;100.00;99848.00;5029713;28;20026;-80
2023/10/25 05:02:53;;;;;;;113.55;57.97;;;;;;;14.38;100.00;99810.47;5011812;28;20096;-77
2023/10/25 05:05:18;;;;;;;109.78;56.45;;;;;;;14.64;100.00;99863.53;5029985;28;20052;-78
2023/10/25 05:07:44;;;;;;;108.05;55.58;;;;;;;14.67;100.00;99877.47;5028680;28;20038;-78
2023/10/25 05:10:12;;;;;;;99.47;54.72;;;;;;;14.64;100.00;99863.53;5012083;28;20037;-78
2023/10/25 05:12:41;;;;;;;104.97;55.55;;;;;;;14.73;100.00;99871.50;5029831;28;20036;-79
2023/10/25 05:15:11;;;;;;;101.90;53.17;;;;;;;14.76;100.00;99857.66;5045796;28;20159;-79
2023/10/25 05:17:41;;;;;;;101.78;53.60;;;;;;;14.72;100.00;99857.59;5031438;28;20075;-78
2023/10/25 05:20:07;;;;;;;96.13;51.67;;;;;;;14.68;100.00;99840.25;5031736;28;20120;-79
2023/10/25 05:22:34;;;;;;;89.43;49.58;;;;;;;14.33;100.00;99778.41;5049632;28;20049;-77
2023/10/25 05:25:01;;;;;;;99.55;50.00;;;;;;;14.74;100.00;99843.75;5049469;28;20057;-78
2023/10/25 05:27:28;;;;;;;92.95;48.45;;;;;;;14.78;100.00;99848.13;5031695;28;20561;-78
2023/10/25 05:29:53;;;;;;;97.93;47.28;;;;;;;14.35;100.00;99765.44;5031518;28;20372;-77
2023/10/25 05:32:20;;;;;;;88.93;45.90;;;;;;;14.84;100.00;99854.28;5031824;28;20032;-78
2023/10/25 05:34:48;;;;;;;87.50;45.97;;;;;;;14.53;100.00;99814.09;5049508;28;20025;-77
2023/10/25 05:37:15;;;;;;;92.43;45.58;;;;;;;14.82;100.00;99860.31;5031765;28;20411;-77
2023/10/25 05:39:42;;;;;;;89.20;47.05;;;;;;;14.79;100.00;99855.06;5049331;28;20029;-77
2023/10/25 05:42:08;;;;;;;87.32;46.72;;;;;;;14.81;100.00;99863.75;5049231;28;20045;-78
2023/10/25 05:44:34;;;;;;;98.28;45.63;;;;;;;14.55;100.00;99826.25;5049111;28;20040;-78
2023/10/25 05:46:59;;;;;;;88.50;43.75;;;;;;;14.90;100.00;99879.44;5027083;28;20042;-78
2023/10/25 05:49:25;;;;;;;89.68;44.38;;;;;;;15.04;100.00;99897.75;5028631;28;20037;-77
2023/10/25 05:51:51;;;;;;;88.97;43.25;;;;;;;14.93;100.00;99861.28;5014092;28;20037;-77
2023/10/25 05:54:16;;;;;;;79.50;43.38;;;;;;;15.08;100.00;99878.75;5014004;28;20025;-78
2023/10/25 05:56:42;;;;;;;91.40;43.58;;;;;;;15.08;100.00;99872.66;5030392;28;20038;-79
2023/10/25 05:59:08;;;;;;;85.70;43.53;;;;;;;15.09;100.00;99871.81;5030153;28;20043;-79
2023/10/25 06:01:46;;;;;;;87.10;44.90;;;;;;;15.22;100.00;99894.47;5030200;28;20499;-77
2023/10/25 06:04:12;;;;;;;78.65;44.88;;;;;;;15.26;100.00;99891.03;5013755;28;20033;-78
2023/10/25 06:06:43;;;;;;;79.18;42.92;;;;;;;15.26;100.00;99877.16;5013857;28;20041;-77
2023/10/25 06:09:10;;;;;;;89.45;45.83;;;;;;;15.35;100.00;99891.13;5013567;28;20026;-77
2023/10/25 06:11:37;;;;;;;79.38;42.63;;;;;;;14.98;100.00;99820.59;5013377;28;20036;-79
2023/10/25 06:14:02;;;;;;;77.80;43.22;;;;;;;15.27;100.00;99858.97;5013546;28;20026;-78
2023/10/25 06:16:28;;;;;;;87.95;46.10;;;;;;;15.40;100.00;99880.72;5030387;28;20087;-77
2023/10/25 06:18:54;;;;;;;83.45;42.22;;;;;;;15.35;100.00;99861.63;5031882;28;20036;-78
2023/10/25 06:21:19;;;;;;;81.57;43.90;;;;;;;15.45;100.00;99878.16;5049847;28;20028;-80
2023/10/25 06:23:44;;;;;;;75.38;43.33;;;;;;;15.49;100.00;99883.41;5014768;28;20069;-79
2023/10/25 06:26:10;;;;;;;71.95;42.15;;;;;;;15.47;100.00;99866.06;5028045;28;20041;-80
2023/10/25 06:28:35;;;;;;;79.82;41.50;;;;;;;15.37;100.00;99847.75;5029800;28;20041;-77
2023/10/25 06:31:02;;;;;;;74.07;41.97;;;;;;;15.55;100.00;99869.56;4997156;28;20085;-82
2023/10/25 06:33:28;;;;;;;82.70;42.97;;;;;;;15.58;100.00;99881.75;4993361;28;20037;-77
2023/10/25 06:35:59;;;;;;;75.22;43.38;;;;;;;15.70;100.00;99907.81;5010020;28;20033;-78
2023/10/25 06:38:26;;;;;;;75.80;41.55;;;;;;;15.66;100.00;99882.66;5009777;28;20081;-76
2023/10/25 06:40:53;;;;;;;79.50;43.47;;;;;;;15.18;100.00;99796.50;5009611;28;20045;-78
2023/10/25 06:43:19;;;;;;;64.35;39.63;;;;;;;15.68;100.00;99883.53;4993244;28;20041;-78
2023/10/25 06:45:47;;;;;;;70.07;41.85;;;;;;;14.70;100.00;99706.06;5009743;28;20444;-78
2023/10/25 06:48:13;;;;;;;74.53;41.22;;;;;;;15.41;100.00;99811.38;5006466;28;20068;-77
2023/10/25 06:50:38;;;;;;;71.45;37.08;;;;;;;15.88;100.00;99881.09;5012754;28;20866;-78
2023/10/25 06:53:04;;;;;;;65.55;38.50;;;;;;;15.90;100.00;99878.50;5012726;28;20042;-77
2023/10/25 06:55:30;;;;;;;68.38;38.92;;;;;;;15.51;100.00;99815.78;5047332;28;20037;-77
2023/10/25 06:57:56;;;;;;;68.80;39.10;;;;;;;15.92;100.00;99887.19;5050834;28;20035;-77
2023/10/25 07:00:24;;;;;;;63.75;36.92;;;;;;;15.94;100.00;99886.34;5050180;28;20113;-78
2023/10/25 07:02:51;;;;;;;63.50;37.55;;;;;;;15.85;100.00;99868.94;5032593;28;20134;-77
2023/10/25 07:05:19;;;;;;;60.28;38.30;;;;;;;15.97;100.00;99875.94;5051883;28;20476;-78
2023/10/25 07:07:49;;;;;;;70.97;38.97;;;;;;;15.99;100.00;99886.38;5051133;28;20037;-77
2023/10/25 07:10:15;;;;;;;64.78;37.85;;;;;;;15.90;100.00;99873.28;5050365;28;20033;-77
2023/10/25 07:12:40;;;;;;;60.45;35.63;;;;;;;16.01;100.00;99892.44;5051998;28;20151;-78
2023/10/25 07:15:06;;;;;;;67.05;36.90;;;;;;;15.95;100.00;99882.88;5050302;28;20124;-77
2023/10/25 07:17:32;;;;;;;63.58;36.13;;;;;;;16.05;100.00;99899.44;5051461;28;20032;-77
2023/10/25 07:20:01;;;;;;;74.07;44.78;;;;;;;16.08;100.00;99898.56;5051221;28;20028;-76
2023/10/25 07:22:27;;;;;;;76.03;47.90;;;;;;;16.06;100.00;99902.88;5049513;28;20029;-77
2023/10/25 07:24:53;;;;;;;76.40;50.03;;;;;;;16.09;100.00;99890.75;5049842;28;20553;-77
2023/10/25 07:27:18;;;;;;;67.07;37.33;;;;;;;16.15;100.00;99888.19;5050122;28;20044;-77
2023/10/25 07:29:44;;;;;;;57.00;32.95;;;;;;;16.28;100.00;99902.13;5051000;28;20117;-76
2023/10/25 07:32:11;;;;;;;62.88;36.60;;;;;;;16.25;100.00;99898.63;5050964;28;20036;-77
2023/10/25 07:34:38;;;;;;;70.70;41.25;;;;;;;16.33;100.00;99910.81;5049749;28;20024;-78
2023/10/25 07:37:04;;;;;;;59.10;34.08;;;;;;;16.40;100.00;99903.03;5047489;28;20119;-77
2023/10/25 07:39:30;;;;;;;56.75;34.50;;;;;;;16.33;100.00;99887.38;4989027;28;20582;-78
2023/10/25 07:41:55;;;;;;;52.55;30.35;;;;;;;16.39;100.00;99885.69;4982961;28;20039;-77
2023/10/25 07:44:21;;;;;;;59.97;36.17;;;;;;;16.37;100.00;99897.81;4969191;28;20066;-77
2023/10/25 07:46:46;;;;;;;52.10;32.00;;;;;;;16.38;100.00;99886.53;4959563;28;20042;-78
2023/10/25 07:49:12;;;;;;;58.40;31.35;;;;;;;16.22;100.00;99876.03;4969394;28;20038;-76
2023/10/25 07:51:38;;;;;;;53.40;32.55;;;;;;;15.96;100.00;99808.25;4949556;28;20075;-77
2023/10/25 07:54:03;;;;;;;59.28;32.78;;;;;;;16.45;100.00;99891.78;4949896;29;20055;-77
2023/10/25 07:56:32;;;;;;;49.25;28.13;;;;;;;16.42;100.00;99870.91;4949834;29;20429;-80
2023/10/25 07:58:58;;;;;;;52.72;30.73;;;;;;;16.46;100.00;99862.25;4949933;29;20102;-77
2023/10/25 08:01:23;;;;;;;54.20;30.58;;;;;;;16.43;100.00;99843.13;4950022;29;20481;-78
2023/10/25 08:03:49;;;;;;;55.45;32.10;;;;;;;16.43;100.00;99858.78;4965995;28;20138;-78
2023/10/25 08:06:15;;;;;;;56.83;32.38;;;;;;;16.49;100.00;99850.97;4968681;28;20039;-78
2023/10/25 08:08:40;;;;;;;53.80;28.77;;;;;;;16.39;100.00;99818.81;4968959;28;20066;-78
2023/10/25 08:11:09;;;;;;;55.33;32.78;;;;;;;16.68;100.00;99887.50;5017567;28;20124;-80
2023/10/25 08:13:38;;;;;;;57.15;31.17;;;;;;;16.79;100.00;99886.66;5026626;28;20056;-78
2023/10/25 08:16:05;;;;;;;54.75;31.42;;;;;;;16.72;100.00;99890.09;5007185;28;20084;-80
2023/10/25 08:18:32;;;;;;;61.08;34.13;;;;;;;16.77;100.00;99897.94;5006888;28;20484;-80
2023/10/25 08:20:58;;;;;;;55.25;34.20;;;;;;;16.74;100.00;99874.50;5009287;28;20037;-77
2023/10/25 08:23:25;;;;;;;55.28;34.83;;;;;;;16.79;100.00;99859.72;5002217;28;20546;-80
2023/10/25 08:25:51;;;;;;;60.25;33.63;;;;;;;16.77;100.00;99843.19;5006785;28;20393;-78
2023/10/25 08:28:19;;;;;;;53.20;31.15;;;;;;;16.81;100.00;99866.69;5007203;28;20112;-76
2023/10/25 08:30:45;;;;;;;55.00;32.13;;;;;;;16.82;100.00;99888.38;4990581;28;20152;-77
2023/10/25 08:33:11;;;;;;;51.03;30.20;;;;;;;17.00;100.00;99876.28;5005990;28;20112;-77
2023/10/25 08:35:37;;;;;;;48.83;30.17;;;;;;;16.95;100.00;99860.66;4998533;28;20488;-77
2023/10/25 08:38:06;;;;;;;52.90;31.00;;;;;;;17.04;100.00;99851.97;5007189;28;20491;-76
2023/10/25 08:40:32;;;;;;;51.95;29.33;;;;;;;16.71;100.00;99786.75;4987384;28;20566;-78
2023/10/25 08:42:59;;;;;;;48.72;30.15;;;;;;;17.11;100.00;99851.97;4971053;28;20046;-79
2023/10/25 08:45:25;;;;;;;51.67;30.05;;;;;;;17.07;100.00;99838.91;4987227;28;20497;-78
2023/10/25 08:47:51;;;;;;;47.75;28.80;;;;;;;17.07;100.00;99839.81;4971094;28;20033;-79
2023/10/25 08:50:19;;;;;;;46.83;28.55;;;;;;;17.04;100.00;99833.72;4987173;28;20077;-80
2023/10/25 08:52:48;;;;;;;42.90;29.47;;;;;;;17.21;100.00;99859.78;4987925;28;20058;-78
2023/10/25 08:55:15;;;;;;;54.97;29.88;;;;;;;16.95;100.00;99809.38;4987974;28;20591;-78
2023/10/25 08:57:41;;;;;;;46.05;29.10;;;;;;;17.23;100.00;99851.06;4989851;28;20064;-78
2023/10/25 09:00:07;;;;;;;47.72;29.35;;;;;;;17.34;100.00;99868.50;5006966;28;20511;-78
2023/10/25 09:02:37;;;;;;;47.88;28.55;;;;;;;17.29;100.00;99863.25;5006526;28;20515;-77
2023/10/25 09:05:02;;;;;;;;;;;;;;;17.37;100.00;99858.91;5007388;28;20034;-76
2023/10/25 09:07:32;;;;;;;42.42;26.55;;;;;;;17.41;100.00;99845.00;4982213;28;19924;-76
2023/10/25 09:09:57;;;;;;;41.88;27.00;;;;;;;17.46;100.00;99852.81;4990367;28;20499;-77
2023/10/25 09:12:24;;;;;;;45.35;26.85;;;;;;;16.98;100.00;99775.47;5024999;28;20099;-77
2023/10/25 09:14:50;;;;;;;44.75;27.88;;;;;;;17.59;100.00;99858.88;5038776;28;20033;-79
2023/10/25 09:17:16;;;;;;;46.83;27.85;;;;;;;17.59;100.00;99849.31;5049086;28;20025;-76
2023/10/25 09:19:49;;;;;;;46.80;28.65;;;;;;;17.71;100.00;99866.69;5038478;28;20473;-78
2023/10/25 09:22:27;;;;;;;40.38;25.95;;;;;;;17.75;100.00;99841.44;5039264;28;20025;-78
2023/10/25 09:24:58;;;;;;;65.85;43.58;;;;;;;17.42;100.00;99770.19;5030583;28;20051;-79
2023/10/25 09:27:23;;;;;;;174.80;104.60;;;;;;;17.91;100.00;99842.28;5052887;28;20405;-78
2023/10/25 09:29:50;;;;;;;325.00;190.18;;;;;;;17.99;100.00;99847.50;5050492;28;20036;-76
2023/10/25 09:32:18;;;;;;;117.13;63.45;;;;;;;18.01;100.00;99856.22;5052682;28;20383;-76
2023/10/25 09:34:45;;;;;;;102.50;56.42;;;;;;;18.09;100.00;99864.88;5052392;28;20033;-77
2023/10/25 09:37:11;;;;;;;48.00;28.27;;;;;;;18.10;100.00;99851.81;5042785;28;20033;-79
2023/10/25 09:39:37;;;;;;;107.40;63.67;;;;;;;18.16;100.00;99845.69;5052662;28;20025;-77
2023/10/25 09:42:06;;;;;;;42.00;25.42;;;;;;;18.16;100.00;99837.84;5052437;28;20031;-75
2023/10/25 09:44:37;;;;;;;30.10;19.42;;;;;;;18.22;100.00;99830.00;5052614;28;20021;-76
2023/10/25 09:47:08;;;;;;;34.80;22.20;;;;;;;17.31;100.00;99663.25;5042670;28;20059;-77
2023/10/25 09:49:33;;;;;;;36.88;22.77;;;;;;;18.37;100.00;99821.22;5052189;28;20047;-76
2023/10/25 09:52:07;;;;;;;36.88;21.23;;;;;;;18.55;100.00;99828.06;5052334;28;20040;-78
2023/10/25 09:54:37;;;;;;;36.10;22.67;;;;;;;18.57;100.00;99821.09;5042356;28;20021;-78
2023/10/25 09:57:07;;;;;;;32.08;21.30;;;;;;;18.77;100.00;99830.56;5009775;28;20507;-77
2023/10/25 09:59:33;;;;;;;37.63;21.30;;;;;;;18.85;100.00;99815.66;5009760;28;20081;-78
2023/10/25 10:02:01;;;;;;;71.40;40.03;;;;;;;18.97;100.00;99835.66;5009812;28;20054;-77
2023/10/25 10:04:42;;;;;;;34.30;19.60;;;;;;;19.02;100.00;99833.88;5009849;28;20052;-77
2023/10/25 10:07:35;;;;;;;57.03;30.77;;;;;;;19.16;100.00;99852.06;5008910;28;20044;-77
2023/10/25 10:10:19;;;;;;;29.75;18.40;;;;;;;19.21;100.00;99838.94;5007803;28;20122;-76
2023/10/25 10:12:44;;;;;;;31.27;18.95;;;;;;;19.14;100.00;99838.16;4991897;28;20050;-77
2023/10/25 10:15:12;;;;;;;32.53;18.75;;;;;;;19.15;100.00;99818.97;5009568;28;20040;-78
2023/10/25 10:17:43;;;;;;;30.02;17.73;;;;;;;19.17;100.00;99817.19;4992964;28;20038;-77
2023/10/25 10:20:22;;;;;;;33.13;19.98;;;;;;;19.28;100.00;99813.59;5009570;28;20033;-75
2023/10/25 10:23:02;;;;;;;32.30;20.00;;;;;;;19.38;100.00;99795.16;5008685;28;20103;-77
2023/10/25 10:25:47;;;;;;;50.28;29.52;;;;;;;19.11;100.00;99716.97;5008566;28;20443;-78
2023/10/25 10:28:14;;;;;;;50.00;29.08;;;;;;;19.61;100.00;99786.19;5032609;28;20045;-77
2023/10/25 10:30:40;;;;;;;32.65;20.20;;;;;;;19.59;100.00;99772.28;5051779;28;20027;-77
2023/10/25 10:33:11;;;;;;;39.30;20.98;;;;;;;19.85;100.00;99789.44;5051437;28;20053;-75
2023/10/25 10:35:49;;;;;;;34.38;18.85;;;;;;;19.91;100.00;99780.66;5030794;28;20017;-76
2023/10/25 10:38:15;;;;;;;28.50;18.23;;;;;;;19.92;100.00;99777.16;5046016;28;20474;-78
2023/10/25 10:40:41;;;;;;;34.63;17.92;;;;;;;19.95;100.00;99778.00;5050928;28;20159;-78
2023/10/25 10:43:07;;;;;;;30.58;18.58;;;;;;;19.97;100.00;99768.34;5051267;28;20024;-77
2023/10/25 10:45:33;;;;;;;30.60;17.15;;;;;;;20.11;100.00;99762.06;5049812;28;20025;-76
2023/10/25 10:48:21;;;;;;;34.40;19.67;;;;;;;20.25;100.00;99770.59;5051094;28;20388;-73
2023/10/25 10:50:49;;;;;;;30.85;18.67;;;;;;;20.38;100.00;99767.81;5049447;28;20066;-75
2023/10/25 10:53:15;;;;;;;29.27;17.40;;;;;;;20.50;100.00;99758.00;5032883;28;20099;-75
2023/10/25 10:55:40;;;;;;;30.38;17.08;;;;;;;20.69;100.00;99747.22;5051253;28;20509;-75
2023/10/25 10:58:07;;;;;;;26.45;15.70;;;;;;;20.82;100.00;99745.28;5050923;28;20044;-75
2023/10/25 11:00:33;;;;;;;28.15;16.67;;;;;;;20.94;100.00;99742.44;5050614;28;20685;-73
2023/10/25 11:03:04;;;;;;;26.73;15.93;;;;;;;21.08;100.00;99746.59;5051219;28;20052;-73
2023/10/25 11:05:31;;;;;;;29.27;16.35;;;;;;;21.09;100.00;99737.84;5050605;28;20617;-76
2023/10/25 11:07:58;;;;;;;27.35;14.93;;;;;;;21.23;100.00;99741.03;5035982;28;20033;-76
2023/10/25 11:10:23;;;;;;;27.73;16.40;;;;;;;21.35;100.00;99739.97;5050822;28;20032;-73
2023/10/25 11:12:49;;;;;;;24.45;15.88;;;;;;;21.41;100.00;99731.09;5051041;28;20411;-78